sensor_id;sensor_type;location;lat;lon;timestamp;pressure;altitude;pressure_sealevel;temperature;humidity
46174;BME280;31897;52.420;13.498;2023-02-16T00:02:07;102000;;;0.53759;35.80033
46174;BME280;31897;52.420;13.498;2023-02-16T00:05:11;102000;;;0.50723;35.84083
46174;BME280;31897;52.420;13.498;2023-02-16T00:08:21;102000;;;0.52499;35.86945
46174;BME280;31897;52.420;13.498;2023-02-16T00:11:23;102000;;;0.55309;35.86348
46174;BME280;31897;52.420;13.498;2023-02-16T00:14:26;102000;;;0.55923;35.82892
46174;BME280;31897;52.420;13.498;2023-02-16T00:17:27;102000;;;0.52499;35.9097
46174;BME280;31897;52.420;13.498;2023-02-16T00:20:27;102000;;;0.54857;35.93828
46174;BME280;31897;52.420;13.498;2023-02-16T00:23:28;102000;;;0.5518;35.9325
46174;BME280;31897;52.420;13.498;2023-02-16T00:26:29;102000;;;0.59315;35.98396
46174;BME280;31897;52.420;13.498;2023-02-16T00:29:31;102000;;;0.5715;35.85183
46174;BME280;31897;52.420;13.498;2023-02-16T00:32:33;102000;;;0.5476;35.88077
46174;BME280;31897;52.420;13.498;2023-02-16T00:35:34;102000;;;0.54696;35.93254
46174;BME280;31897;52.420;13.498;2023-02-16T00:38:34;102000;;;0.54728;35.94404
46174;BME280;31897;52.420;13.498;2023-02-16T00:41:35;102000;;;0.55826;35.98997
46174;BME280;31897;52.420;13.498;2023-02-16T00:44:38;102000;;;0.57409;35.9841
46174;BME280;31897;52.420;13.498;2023-02-16T00:47:40;102000;;;0.55051;36.05904
46174;BME280;31897;52.420;13.498;2023-02-16T00:50:42;102000;;;0.56601;36.03017
46174;BME280;31897;52.420;13.498;2023-02-16T00:53:43;102000;;;0.56989;35.98988
46174;BME280;31897;52.420;13.498;2023-02-16T00:56:44;102000;;;0.57667;36.16813
46174;BME280;31897;52.420;13.498;2023-02-16T00:59:45;102000;;;0.56569;36.19121
46174;BME280;31897;52.420;13.498;2023-02-16T01:02:47;102000;;;0.5967;36.20249
46174;BME280;31897;52.420;13.498;2023-02-16T01:05:48;102000;;;0.5728;36.21991
46174;BME280;31897;52.420;13.498;2023-02-16T01:08:49;102000;;;0.6122;36.24265
46174;BME280;31897;52.420;13.498;2023-02-16T01:11:51;102000;;;0.6487;36.21939
46174;BME280;31897;52.420;13.498;2023-02-16T01:14:52;102000;;;0.65549;36.1158
46174;BME280;31897;52.420;13.498;2023-02-16T01:17:53;102000;;;0.60639;36.1104
46174;BME280;31897;52.420;13.498;2023-02-16T01:20:54;102000;;;0.55148;36.28332
46174;BME280;31897;52.420;13.498;2023-02-16T01:23:55;102000;;;0.56246;36.3465
46174;BME280;31897;52.420;13.498;2023-02-16T01:26:56;102000;;;0.52111;36.24902
46174;BME280;31897;52.420;13.498;2023-02-16T01:29:56;102000;;;0.46943;36.30687
46174;BME280;31897;52.420;13.498;2023-02-16T01:32:57;102000;;;0.49334;36.30096
46174;BME280;31897;52.420;13.498;2023-02-16T01:35:58;102000;;;0.50916;36.35261
46174;BME280;31897;52.420;13.498;2023-02-16T01:38:59;102000;;;0.52822;36.25472
46174;BME280;31897;52.420;13.498;2023-02-16T01:42:05;102000;;;0.52984;36.27196
46174;BME280;31897;52.420;13.498;2023-02-16T01:45:08;102000;;;0.50303;36.34115
46174;BME280;31897;52.420;13.498;2023-02-16T01:48:12;102000;;;0.51465;36.32957
46174;BME280;31897;52.420;13.498;2023-02-16T01:51:19;102000;;;0.46588;36.35289
46174;BME280;31897;52.420;13.498;2023-02-16T01:54:29;102000;;;0.41323;36.28425
46174;BME280;31897;52.420;13.498;2023-02-16T01:57:33;102000;;;0.39417;36.39935
46174;BME280;31897;52.420;13.498;2023-02-16T02:04:28;102000;;;0.33409;36.42848
46174;BME280;31897;52.420;13.498;2023-02-16T02:07:33;102000;;;0.3257;36.44577
46174;BME280;31897;52.420;13.498;2023-02-16T02:10:38;102000;;;0.337;36.49168
46174;BME280;31897;52.420;13.498;2023-02-16T02:13:42;102000;;;0.33345;36.44572
46174;BME280;31897;52.420;13.498;2023-02-16T02:16:51;102000;;;0.35315;36.4456
46174;BME280;31897;52.420;13.498;2023-02-16T02:19:55;102000;;;0.36963;36.45699
46174;BME280;31897;52.420;13.498;2023-02-16T02:23:02;102000;;;0.36543;36.48576
46174;BME280;31897;52.420;13.498;2023-02-16T02:26:18;102000;;;0.38061;36.43393
46174;BME280;31897;52.420;13.498;2023-02-16T02:29:27;102000;;;0.40225;36.42229
46174;BME280;31897;52.420;13.498;2023-02-16T02:32:32;102000;;;0.39934;36.38782
46174;BME280;31897;52.420;13.498;2023-02-16T02:35:40;102000;;;0.337;36.4572
46174;BME280;31897;52.420;13.498;2023-02-16T02:38:45;102000;;;0.33797;36.45144
46174;BME280;31897;52.420;13.498;2023-02-16T02:41:55;102000;;;0.30147;36.44592
46174;BME280;31897;52.420;13.498;2023-02-16T02:45:00;102000;;;0.30276;36.43442
46174;BME280;31897;52.420;13.498;2023-02-16T02:48:03;102000;;;0.31601;36.49181
46174;BME280;31897;52.420;13.498;2023-02-16T02:51:08;102000;;;0.31665;36.46882
46174;BME280;31897;52.420;13.498;2023-02-16T02:54:11;102000;;;0.32893;36.48598
46174;BME280;31897;52.420;13.498;2023-02-16T02:57:14;102000;;;0.3244;36.45153
46174;BME280;31897;52.420;13.498;2023-02-16T03:00:17;102000;;;0.32182;36.3251
46174;BME280;31897;52.420;13.498;2023-02-16T03:03:19;101900;;;0.26885;36.35418
46174;BME280;31897;52.420;13.498;2023-02-16T03:06:23;101900;;;0.26756;36.34844
46174;BME280;31897;52.420;13.498;2023-02-16T03:09:26;101900;;;0.23073;36.22801
46174;BME280;31897;52.420;13.498;2023-02-16T03:12:27;101900;;;0.18164;36.37198
46174;BME280;31897;52.420;13.498;2023-02-16T03:15:27;101900;;;0.14126;36.41246
46174;BME280;31897;52.420;13.498;2023-02-16T03:18:30;101900;;;0.15741;36.45832
46174;BME280;31897;52.420;13.498;2023-02-16T03:21:33;101900;;;0.14578;36.46414
46174;BME280;31897;52.420;13.498;2023-02-16T03:24:35;101900;;;0.12705;36.5217
46174;BME280;31897;52.420;13.498;2023-02-16T03:27:37;102000;;;0.10282;36.59652
46174;BME280;31897;52.420;13.498;2023-02-16T03:30:39;102000;;;0.09636;36.68847
46174;BME280;31897;52.420;13.498;2023-02-16T03:33:40;102000;;;0.08603;36.69427
46174;BME280;31897;52.420;13.498;2023-02-16T03:36:42;101900;;;0.13286;36.61358
46174;BME280;31897;52.420;13.498;2023-02-16T03:39:43;101900;;;0.13609;36.4642
46174;BME280;31897;52.420;13.498;2023-02-16T03:42:47;101900;;;0.11348;36.40115
46174;BME280;31897;52.420;13.498;2023-02-16T03:45:48;102000;;;0.09572;36.34381
46174;BME280;31897;52.420;13.498;2023-02-16T03:48:49;102000;;;0.05696;36.33257
46174;BME280;31897;52.420;13.498;2023-02-16T03:51:50;102000;;;-0.03575;36.33891
46174;BME280;31897;52.420;13.498;2023-02-16T03:54:50;102000;;;-0.05577;36.35627
46174;BME280;31897;52.420;13.498;2023-02-16T03:57:51;101900;;;-0.08775;36.4139
46174;BME280;31897;52.420;13.498;2023-02-16T04:00:52;101900;;;-0.09356;36.5058
46174;BME280;31897;52.420;13.498;2023-02-16T04:03:53;101900;;;-0.03898;36.51122
46174;BME280;31897;52.420;13.498;2023-02-16T04:06:53;101900;;;-0.03348;36.35039
46174;BME280;31897;52.420;13.498;2023-02-16T04:09:54;101900;;;-0.02509;36.34459
46174;BME280;31897;52.420;13.498;2023-02-16T04:12:55;101900;;;-0.05965;36.37927
46174;BME280;31897;52.420;13.498;2023-02-16T04:15:56;101900;;;-0.10648;36.54033
46174;BME280;31897;52.420;13.498;2023-02-16T04:18:56;101900;;;-0.09647;36.49434
46174;BME280;31897;52.420;13.498;2023-02-16T04:21:57;101900;;;-0.10713;36.57478
46174;BME280;31897;52.420;13.498;2023-02-16T04:24:58;101900;;;-0.11682;36.5691
46174;BME280;31897;52.420;13.498;2023-02-16T04:27:59;101900;;;-0.09582;36.61491
46174;BME280;31897;52.420;13.498;2023-02-16T04:30:59;101900;;;-0.10099;36.52881
46174;BME280;31897;52.420;13.498;2023-02-16T04:34:00;101900;;;-0.10487;36.56329
46174;BME280;31897;52.420;13.498;2023-02-16T04:37:01;101900;;;-0.10584;36.50588
46174;BME280;31897;52.420;13.498;2023-02-16T04:40:02;101900;;;-0.11908;36.58633
46174;BME280;31897;52.420;13.498;2023-02-16T04:43:03;101900;;;-0.11294;36.57482
46174;BME280;31897;52.420;13.498;2023-02-16T04:46:04;101900;;;-0.13103;36.47732
46174;BME280;31897;52.420;13.498;2023-02-16T04:49:05;101900;;;-0.205;36.52369
46174;BME280;31897;52.420;13.498;2023-02-16T04:52:06;101900;;;-0.20597;36.6385
46174;BME280;31897;52.420;13.498;2023-02-16T04:55:06;101900;;;-0.16366;36.62678
46174;BME280;31897;52.420;13.498;2023-02-16T04:58:07;101900;;;-0.17302;36.59813
46174;BME280;31897;52.420;13.498;2023-02-16T05:01:08;101900;;;-0.17561;36.50629
46174;BME280;31897;52.420;13.498;2023-02-16T05:04:17;101900;;;-0.24699;36.49524
46174;BME280;31897;52.420;13.498;2023-02-16T05:07:18;101900;;;-0.27122;36.63887
46174;BME280;31897;52.420;13.498;2023-02-16T05:10:19;101900;;;-0.23633;36.57553
46174;BME280;31897;52.420;13.498;2023-02-16T05:13:19;101900;;;-0.22535;36.57547
46174;BME280;31897;52.420;13.498;2023-02-16T05:16:21;101900;;;-0.26249;36.57569
46174;BME280;31897;52.420;13.498;2023-02-16T05:19:22;101900;;;-0.2696;36.59294
46174;BME280;31897;52.420;13.498;2023-02-16T05:22:23;101900;;;-0.24602;36.64447
46174;BME280;31897;52.420;13.498;2023-02-16T05:25:23;101900;;;-0.26669;36.65032
46174;BME280;31897;52.420;13.498;2023-02-16T05:28:24;101900;;;-0.24441;36.52966
46174;BME280;31897;52.420;13.498;2023-02-16T05:31:25;102000;;;-0.21824;36.47211
46174;BME280;31897;52.420;13.498;2023-02-16T05:34:26;102000;;;-0.24667;36.5182
46174;BME280;31897;52.420;13.498;2023-02-16T05:37:27;102000;;;-0.24473;36.5928
46174;BME280;31897;52.420;13.498;2023-02-16T05:40:28;102000;;;-0.25248;36.55267
46174;BME280;31897;52.420;13.498;2023-02-16T05:43:29;101900;;;-0.24538;36.52393
46174;BME280;31897;52.420;13.498;2023-02-16T05:46:31;101900;;;-0.29932;36.48981
46174;BME280;31897;52.420;13.498;2023-02-16T05:49:32;101900;;;-0.34421;36.57616
46174;BME280;31897;52.420;13.498;2023-02-16T05:52:33;101900;;;-0.40849;36.5421
46174;BME280;31897;52.420;13.498;2023-02-16T05:55:34;101900;;;-0.47826;36.5884
46174;BME280;31897;52.420;13.498;2023-02-16T05:58:35;101900;;;-0.53091;36.66326
46174;BME280;31897;52.420;13.498;2023-02-16T06:01:36;101900;;;-0.50959;36.77786
46174;BME280;31897;52.420;13.498;2023-02-16T06:04:37;101900;;;-0.51767;36.73202
46174;BME280;31897;52.420;13.498;2023-02-16T06:07:38;102000;;;-0.54318;36.77804
46174;BME280;31897;52.420;13.498;2023-02-16T06:10:39;102000;;;-0.55481;36.82398
46174;BME280;31897;52.420;13.498;2023-02-16T06:13:40;102000;;;-0.52736;36.73207
46174;BME280;31897;52.420;13.498;2023-02-16T06:16:41;102000;;;-0.48601;36.74906
46174;BME280;31897;52.420;13.498;2023-02-16T06:19:42;102000;;;-0.47665;36.62281
46174;BME280;31897;52.420;13.498;2023-02-16T06:22:43;102000;;;-0.47955;36.66298
46174;BME280;31897;52.420;13.498;2023-02-16T06:25:47;102000;;;-0.50442;36.62296
46174;BME280;31897;52.420;13.498;2023-02-16T06:28:48;102000;;;-0.49926;36.59999
46174;BME280;31897;52.420;13.498;2023-02-16T06:31:48;102000;;;-0.46695;36.58833
46174;BME280;31897;52.420;13.498;2023-02-16T06:34:49;102000;;;-0.42367;36.50203
46174;BME280;31897;52.420;13.498;2023-02-16T06:37:50;102000;;;-0.38136;36.42718
46174;BME280;31897;52.420;13.498;2023-02-16T06:40:51;102000;;;-0.37232;36.52467
46174;BME280;31897;52.420;13.498;2023-02-16T06:43:52;102000;;;-0.39848;36.50761
46174;BME280;31897;52.420;13.498;2023-02-16T06:46:53;102000;;;-0.35132;36.48438
46174;BME280;31897;52.420;13.498;2023-02-16T06:49:53;102000;;;-0.35326;36.47866
46174;BME280;31897;52.420;13.498;2023-02-16T06:52:54;102000;;;-0.33614;36.5302
46174;BME280;31897;52.420;13.498;2023-02-16T06:55:55;102000;;;-0.27283;36.48965
46174;BME280;31897;52.420;13.498;2023-02-16T06:58:56;102000;;;-0.22018;36.4262
46174;BME280;31897;52.420;13.498;2023-02-16T07:01:57;102000;;;-0.24925;36.47229
46174;BME280;31897;52.420;13.498;2023-02-16T07:04:57;102000;;;-0.16107;36.51769
46174;BME280;31897;52.420;13.498;2023-02-16T07:07:58;102000;;;-0.06708;36.41951
46174;BME280;31897;52.420;13.498;2023-02-16T07:10:59;102000;;;-0.02186;36.40199
46174;BME280;31897;52.420;13.498;2023-02-16T07:14:00;102000;;;0.04953;36.39006
46174;BME280;31897;52.420;13.498;2023-02-16T07:17:01;102000;;;0.17421;36.32607
46174;BME280;31897;52.420;13.498;2023-02-16T07:20:02;102000;;;0.32247;36.17565
46174;BME280;31897;52.420;13.498;2023-02-16T07:23:03;102000;;;0.43907;36.0886
46174;BME280;31897;52.420;13.498;2023-02-16T07:26:03;102000;;;0.51982;35.9615
46174;BME280;31897;52.420;13.498;2023-02-16T07:29:04;102000;;;0.63191;35.90313
46174;BME280;31897;52.420;13.498;2023-02-16T07:32:05;102000;;;0.78017;35.83869
46174;BME280;31897;52.420;13.498;2023-02-16T07:35:06;102000;;;0.82765;35.7117
46174;BME280;31897;52.420;13.498;2023-02-16T07:38:07;102000;;;0.86899;35.75165
46174;BME280;31897;52.420;13.498;2023-02-16T07:41:08;102000;;;0.93682;35.61869
46174;BME280;31897;52.420;13.498;2023-02-16T07:44:09;102000;;;0.98463;35.71616
46174;BME280;31897;52.420;13.498;2023-02-16T07:47:10;102000;;;1.09704;35.68644
46174;BME280;31897;52.420;13.498;2023-02-16T07:50:10;102000;;;1.2285;35.51251
46174;BME280;31897;52.420;13.498;2023-02-16T07:53:11;102000;;;1.30053;35.40816
46174;BME280;31897;52.420;13.498;2023-02-16T07:56:17;102000;;;1.35027;35.3155
46174;BME280;31897;52.420;13.498;2023-02-16T07:59:18;102000;;;1.38387;35.32671
46174;BME280;31897;52.420;13.498;2023-02-16T08:02:19;102000;;;1.50015;35.21609
46174;BME280;31897;52.420;13.498;2023-02-16T08:05:20;102000;;;1.59964;35.14017
46174;BME280;31897;52.420;13.498;2023-02-16T08:08:20;102000;;;1.67425;35.07023
46174;BME280;31897;52.420;13.498;2023-02-16T08:11:22;102000;;;1.77891;35.01148
46174;BME280;31897;52.420;13.498;2023-02-16T08:14:23;102000;;;1.91231;34.91202
46174;BME280;31897;52.420;13.498;2023-02-16T08:17:24;102000;;;2.11452;34.73667
46174;BME280;31897;52.420;13.498;2023-02-16T08:20:25;102000;;;2.30283;34.54975
46174;BME280;31897;52.420;13.498;2023-02-16T08:23:25;102000;;;2.39328;34.31758
46174;BME280;31897;52.420;13.498;2023-02-16T08:26:27;102000;;;2.51053;34.13121
46174;BME280;31897;52.420;13.498;2023-02-16T08:29:28;102000;;;2.49761;34.15449
46174;BME280;31897;52.420;13.498;2023-02-16T08:32:29;102000;;;2.50181;34.10242
46174;BME280;31897;52.420;13.498;2023-02-16T08:35:29;102000;;;2.46369;34.13757
46174;BME280;31897;52.420;13.498;2023-02-16T08:38:30;102000;;;2.47758;34.20098
46174;BME280;31897;52.420;13.498;2023-02-16T08:41:32;102000;;;2.54574;34.11342
46174;BME280;31897;52.420;13.498;2023-02-16T08:44:33;102000;;;2.5677;34.05534
46174;BME280;31897;52.420;13.498;2023-02-16T08:47:34;102000;;;2.65007;33.95599
46174;BME280;31897;52.420;13.498;2023-02-16T08:50:34;102000;;;2.7179;34.00138
46174;BME280;31897;52.420;13.498;2023-02-16T08:53:35;102000;;;2.84743;33.93607
46174;BME280;31897;52.420;13.498;2023-02-16T08:56:36;102000;;;2.94369;33.70335
46174;BME280;31897;52.420;13.498;2023-02-16T08:59:37;102000;;;3.0645;33.59172
46174;BME280;31897;52.420;13.498;2023-02-16T09:02:38;101900;;;3.10778;33.44638
46174;BME280;31897;52.420;13.498;2023-02-16T09:05:39;102000;;;3.06967;33.41219
46174;BME280;31897;52.420;13.498;2023-02-16T09:08:40;102000;;;3.1178;33.38256
46174;BME280;31897;52.420;13.498;2023-02-16T09:11:41;102000;;;3.17271;33.39913
46174;BME280;31897;52.420;13.498;2023-02-16T09:14:42;102000;;;3.40302;33.33786
46174;BME280;31897;52.420;13.498;2023-02-16T09:17:42;102000;;;4.13401;32.31134
46174;BME280;31897;52.420;13.498;2023-02-16T09:20:43;101900;;;8.80627;26.46579
46174;BME280;31897;52.420;13.498;2023-02-16T09:23:45;101900;;;15.14249;21.00905
46174;BME280;31897;52.420;13.498;2023-02-16T09:26:46;101900;;;18.82833;18.31116
46174;BME280;31897;52.420;13.498;2023-02-16T09:29:46;101900;;;21.64684;16.32022
46174;BME280;31897;52.420;13.498;2023-02-16T09:32:47;101900;;;24.17045;14.63315
46174;BME280;31897;52.420;13.498;2023-02-16T09:35:48;101900;;;25.72614;13.32758
46174;BME280;31897;52.420;13.498;2023-02-16T09:38:49;101900;;;27.11643;12.74287
46174;BME280;31897;52.420;13.498;2023-02-16T09:41:53;101900;;;26.97039;12.48873
46174;BME280;31897;52.420;13.498;2023-02-16T09:44:57;101900;;;27.59138;11.82454
46174;BME280;31897;52.420;13.498;2023-02-16T09:48:02;101900;;;27.0993;11.76087
46174;BME280;31897;52.420;13.498;2023-02-16T09:51:02;101900;;;27.74744;11.17958
46174;BME280;31897;52.420;13.498;2023-02-16T09:54:09;101900;;;28.65084;10.86765
46174;BME280;31897;52.420;13.498;2023-02-16T09:57:16;101900;;;29.09769;10.39665
46174;BME280;31897;52.420;13.498;2023-02-16T10:00:21;101900;;;28.00754;10.46482
46174;BME280;31897;52.420;13.498;2023-02-16T10:03:29;101900;;;27.70253;9.97627
46174;BME280;31897;52.420;13.498;2023-02-16T10:06:35;101900;;;26.57847;10.39152
46174;BME280;31897;52.420;13.498;2023-02-16T10:09:41;101900;;;26.1704;10.6546
46174;BME280;31897;52.420;13.498;2023-02-16T10:12:45;101900;;;25.45991;10.90831
46174;BME280;31897;52.420;13.498;2023-02-16T10:15:48;101900;;;25.0554;11.34129
46174;BME280;31897;52.420;13.498;2023-02-16T10:18:50;101900;;;25.33487;11.3337
46174;BME280;31897;52.420;13.498;2023-02-16T10:21:54;101900;;;25.28738;11.06156
46174;BME280;31897;52.420;13.498;2023-02-16T10:24:58;101900;;;24.58078;11.26489
46174;BME280;31897;52.420;13.498;2023-02-16T10:28:04;101900;;;24.18725;11.29279
46174;BME280;31897;52.420;13.498;2023-02-16T10:31:10;101900;;;23.19861;11.53933
46174;BME280;31897;52.420;13.498;2023-02-16T10:34:16;101900;;;21.54378;12.3346
46174;BME280;31897;52.420;13.498;2023-02-16T10:37:21;101900;;;20.21496;12.97511
46174;BME280;31897;52.420;13.498;2023-02-16T10:40:27;101900;;;18.83124;13.71762
46174;BME280;31897;52.420;13.498;2023-02-16T10:43:33;101900;;;17.90112;14.40897
46174;BME280;31897;52.420;13.498;2023-02-16T10:46:41;101900;;;17.4792;14.83804
46174;BME280;31897;52.420;13.498;2023-02-16T10:49:42;101900;;;17.08054;15.16268
46174;BME280;31897;52.420;13.498;2023-02-16T10:52:44;101900;;;16.53553;15.5434
46174;BME280;31897;52.420;13.498;2023-02-16T10:55:44;101900;;;15.98148;15.99553
46174;BME280;31897;52.420;13.498;2023-02-16T10:58:45;101900;;;15.88101;16.21097
46174;BME280;31897;52.420;13.498;2023-02-16T11:01:47;101900;;;16.38563;16.16386
46174;BME280;31897;52.420;13.498;2023-02-16T11:04:49;101900;;;16.74261;16.10117
46174;BME280;31897;52.420;13.498;2023-02-16T11:07:51;101900;;;16.32941;16.22106
46174;BME280;31897;52.420;13.498;2023-02-16T11:10:52;101900;;;15.85742;16.54166
46174;BME280;31897;52.420;13.498;2023-02-16T11:13:56;101900;;;16.03284;16.48975
46174;BME280;31897;52.420;13.498;2023-02-16T11:17:02;101900;;;16.10683;16.50949
46174;BME280;31897;52.420;13.498;2023-02-16T11:20:04;101900;;;15.78312;16.69554
46174;BME280;31897;52.420;13.498;2023-02-16T11:23:19;101900;;;15.17965;16.99259
46174;BME280;31897;52.420;13.498;2023-02-16T11:26:21;101900;;;14.697;17.29408
46174;BME280;31897;52.420;13.498;2023-02-16T11:29:23;101900;;;14.63077;17.53053
46174;BME280;31897;52.420;13.498;2023-02-16T11:32:23;101900;;;14.27509;17.82418
46174;BME280;31897;52.420;13.498;2023-02-16T11:35:24;101900;;;13.90325;18.14796
46174;BME280;31897;52.420;13.498;2023-02-16T11:38:26;101900;;;13.98273;18.22721
46174;BME280;31897;52.420;13.498;2023-02-16T11:41:28;101900;;;13.9039;18.30881
46174;BME280;31897;52.420;13.498;2023-02-16T11:44:30;101900;;;13.796;18.45742
46174;BME280;31897;52.420;13.498;2023-02-16T11:47:32;101900;;;13.76079;18.54859
46174;BME280;31897;52.420;13.498;2023-02-16T11:50:34;101800;;;13.61186;18.68728
46174;BME280;31897;52.420;13.498;2023-02-16T11:53:36;101800;;;13.69812;18.76027
46174;BME280;31897;52.420;13.498;2023-02-16T11:56:37;101800;;;13.65418;18.78633
46174;BME280;31897;52.420;13.498;2023-02-16T11:59:38;101800;;;13.88613;18.71488
46174;BME280;31897;52.420;13.498;2023-02-16T12:02:46;101800;;;14.22017;18.50689
46174;BME280;31897;52.420;13.498;2023-02-16T12:05:52;101800;;;14.55066;18.29278
46174;BME280;31897;52.420;13.498;2023-02-16T12:09:02;101800;;;14.65306;18.23965
46174;BME280;31897;52.420;13.498;2023-02-16T12:12:08;101800;;;14.64273;18.1447
46174;BME280;31897;52.420;13.498;2023-02-16T12:15:15;101800;;;14.95254;17.88937
46174;BME280;31897;52.420;13.498;2023-02-16T12:18:23;101800;;;15.31695;17.51709
46174;BME280;31897;52.420;13.498;2023-02-16T12:21:28;101800;;;16.16336;17.14133
46174;BME280;31897;52.420;13.498;2023-02-16T12:24:36;101800;;;16.67283;16.86704
46174;BME280;31897;52.420;13.498;2023-02-16T12:27:41;101800;;;16.73841;16.57539
46174;BME280;31897;52.420;13.498;2023-02-16T12:30:48;101800;;;17.5283;16.09145
46174;BME280;31897;52.420;13.498;2023-02-16T12:33:53;101800;;;19.41987;15.20764
46174;BME280;31897;52.420;13.498;2023-02-16T12:36:58;101800;;;20.64691;14.52116
46174;BME280;31897;52.420;13.498;2023-02-16T12:40:08;101800;;;21.42941;13.47102
46174;BME280;31897;52.420;13.498;2023-02-16T12:43:22;101800;;;21.71759;13.16078
46174;BME280;31897;52.420;13.498;2023-02-16T12:46:25;101800;;;21.98413;13.03988
46174;BME280;31897;52.420;13.498;2023-02-16T12:49:27;101800;;;21.97347;12.64569
46174;BME280;31897;52.420;13.498;2023-02-16T12:52:32;101800;;;22.356;12.12126
46174;BME280;31897;52.420;13.498;2023-02-16T12:55:36;101800;;;21.66138;12.6788
46174;BME280;31897;52.420;13.498;2023-02-16T12:58:39;101800;;;20.88534;13.11862
46174;BME280;31897;52.420;13.498;2023-02-16T13:01:41;101800;;;20.49926;13.23487
46174;BME280;31897;52.420;13.498;2023-02-16T13:04:44;101800;;;19.14979;13.99297
46174;BME280;31897;52.420;13.498;2023-02-16T13:07:48;101800;;;17.86946;14.77802
46174;BME280;31897;52.420;13.498;2023-02-16T13:10:53;101800;;;16.65732;15.49418
46174;BME280;31897;52.420;13.498;2023-02-16T13:13:55;101800;;;16.09035;15.92928
46174;BME280;31897;52.420;13.498;2023-02-16T13:16:59;101800;;;16.18436;16.03167
46174;BME280;31897;52.420;13.498;2023-02-16T13:20:01;101800;;;16.26286;16.06906
46174;BME280;31897;52.420;13.498;2023-02-16T13:23:08;101800;;;16.46962;16.09903
46174;BME280;31897;52.420;13.498;2023-02-16T13:29:51;101800;;;15.80121;16.63465
46174;BME280;31897;52.420;13.498;2023-02-16T13:32:59;101800;;;15.13183;17.01318
46174;BME280;31897;52.420;13.498;2023-02-16T13:36:27;101800;;;14.67503;17.36095
46174;BME280;31897;52.420;13.498;2023-02-16T13:39:37;101800;;;14.27121;17.71106
46174;BME280;31897;52.420;13.498;2023-02-16T13:42:59;101800;;;14.0706;17.95434
46174;BME280;31897;52.420;13.498;2023-02-16T13:46:02;101800;;;13.89292;18.1783
46174;BME280;31897;52.420;13.498;2023-02-16T13:49:04;101800;;;13.73947;18.4008
46174;BME280;31897;52.420;13.498;2023-02-16T13:52:05;101800;;;13.59442;18.65841
46174;BME280;31897;52.420;13.498;2023-02-16T13:55:07;101800;;;13.51365;18.78162
46174;BME280;31897;52.420;13.498;2023-02-16T13:58:36;101800;;;13.23615;19.03969
46174;BME280;31897;52.420;13.498;2023-02-16T14:01:39;101800;;;13.06623;19.2742
46174;BME280;31897;52.420;13.498;2023-02-16T14:05:05;101800;;;12.90826;19.50198
46174;BME280;31897;52.420;13.498;2023-02-16T14:08:11;101800;;;12.90858;19.62677
46174;BME280;31897;52.420;13.498;2023-02-16T14:11:12;101800;;;12.89017;19.71682
46174;BME280;31897;52.420;13.498;2023-02-16T14:14:23;101800;;;12.6818;19.92893
46174;BME280;31897;52.420;13.498;2023-02-16T14:17:26;101800;;;12.51123;20.13309
46174;BME280;31897;52.420;13.498;2023-02-16T14:20:28;101800;;;12.34454;20.30128
46174;BME280;31897;52.420;13.498;2023-02-16T14:23:29;101800;;;12.32451;20.3497
46174;BME280;31897;52.420;13.498;2023-02-16T14:26:30;101800;;;12.31579;20.42725
46174;BME280;31897;52.420;13.498;2023-02-16T14:29:33;101800;;;12.34421;20.49712
46174;BME280;31897;52.420;13.498;2023-02-16T14:32:37;101800;;;12.30319;20.57617
46174;BME280;31897;52.420;13.498;2023-02-16T14:35:39;101800;;;12.29188;20.68351
46174;BME280;31897;52.420;13.498;2023-02-16T14:38:42;101800;;;12.28833;20.743
46174;BME280;31897;52.420;13.498;2023-02-16T14:41:44;101800;;;12.21144;20.92451
46174;BME280;31897;52.420;13.498;2023-02-16T14:44:51;101800;;;12.15136;20.99251
46174;BME280;31897;52.420;13.498;2023-02-16T14:47:56;101800;;;12.06575;21.15651
46174;BME280;31897;52.420;13.498;2023-02-16T14:51:09;101800;;;11.95817;21.33329
46174;BME280;31897;52.420;13.498;2023-02-16T14:57:49;101800;;;11.89292;21.54955
46174;BME280;31897;52.420;13.498;2023-02-16T15:00:53;101800;;;11.8758;21.60959
46174;BME280;31897;52.420;13.498;2023-02-16T15:03:55;101800;;;11.76758;21.72101
46174;BME280;31897;52.420;13.498;2023-02-16T15:06:57;101800;;;11.65774;21.85614
46174;BME280;31897;52.420;13.498;2023-02-16T15:09:58;101800;;;11.5408;22.06847
46174;BME280;31897;52.420;13.498;2023-02-16T15:13:02;101700;;;11.58926;22.13743
46174;BME280;31897;52.420;13.498;2023-02-16T15:16:03;101800;;;11.57052;22.20337
46174;BME280;31897;52.420;13.498;2023-02-16T15:19:07;101800;;;11.54887;22.22798
46174;BME280;31897;52.420;13.498;2023-02-16T15:22:09;101700;;;11.47813;22.36123
46174;BME280;31897;52.420;13.498;2023-02-16T15:25:20;101700;;;11.3586;22.53199
46174;BME280;31897;52.420;13.498;2023-02-16T15:28:22;101700;;;11.38283;22.58423